createdAt,value
2023-06-23T00:01:34.569Z,7.40
2023-06-23T00:04:04.639Z,7.88
2023-06-23T00:06:33.041Z,9.18
2023-06-23T00:09:02.142Z,10.13
2023-06-23T00:11:30.836Z,9.98
2023-06-23T00:13:59.797Z,6.75
2023-06-23T00:16:30.376Z,10.18
2023-06-23T00:19:05.578Z,8.20
2023-06-23T00:21:34.002Z,7.63
2023-06-23T00:24:02.513Z,6.40
2023-06-23T00:26:30.837Z,10.70
2023-06-23T00:28:59.926Z,6.60
2023-06-23T00:31:28.710Z,8.23
2023-06-23T00:33:57.146Z,6.30
2023-06-23T00:36:32.138Z,5.75
2023-06-23T00:39:02.914Z,10.30
2023-06-23T00:41:31.357Z,6.43
2023-06-23T00:44:00.272Z,7.70
2023-06-23T00:46:29.823Z,7.55
2023-06-23T00:48:58.809Z,10.82
2023-06-23T00:51:29.015Z,10.60
2023-06-23T00:53:58.057Z,8.85
2023-06-23T00:56:27.573Z,8.98
2023-06-23T00:58:56.653Z,12.75
2023-06-23T01:01:27.113Z,7.65
2023-06-23T01:03:55.904Z,7.82
2023-06-23T01:06:32.353Z,10.15
2023-06-23T01:09:07.374Z,10.55
2023-06-23T01:11:44.979Z,9.10
2023-06-23T01:14:18.042Z,13.18
2023-06-23T01:16:52.771Z,6.57
2023-06-23T01:19:43.618Z,7.90
2023-06-23T01:22:23.300Z,13.50
2023-06-23T01:25:03.846Z,14.38
2023-06-23T01:27:46.469Z,9.30
2023-06-23T01:30:18.808Z,11.30
2023-06-23T01:32:54.045Z,7.60
2023-06-23T01:35:26.312Z,9.77
2023-06-23T01:38:05.074Z,10.98
2023-06-23T01:40:35.754Z,12.85
2023-06-23T01:43:08.100Z,8.32
2023-06-23T01:45:40.600Z,9.00
2023-06-23T01:48:12.907Z,12.55
2023-06-23T01:50:43.792Z,8.70
2023-06-23T01:53:12.877Z,11.93
2023-06-23T01:55:42.486Z,8.85
2023-06-23T01:58:12.451Z,11.18
2023-06-23T02:00:42.955Z,10.65
2023-06-23T02:03:15.407Z,9.57
2023-06-23T02:05:48.827Z,9.70
2023-06-23T02:08:19.048Z,13.48
2023-06-23T02:10:48.092Z,10.30
2023-06-23T02:13:17.799Z,11.90
2023-06-23T02:15:48.783Z,8.65
2023-06-23T02:18:19.279Z,8.45
2023-06-23T02:20:49.410Z,6.10
2023-06-23T02:23:18.873Z,6.05
2023-06-23T02:25:48.112Z,3.38
2023-06-23T02:28:16.750Z,5.45
2023-06-23T02:30:50.757Z,5.50
2023-06-23T02:33:19.241Z,2.63
2023-06-23T02:35:48.187Z,3.92
2023-06-23T02:38:22.518Z,3.33
2023-06-23T02:40:53.609Z,2.47
2023-06-23T02:43:32.732Z,4.72
2023-06-23T02:46:05.926Z,2.10
2023-06-23T02:48:39.097Z,2.03
2023-06-23T02:51:18.731Z,3.08
2023-06-23T02:53:51.103Z,1.90
2023-06-23T02:56:23.132Z,4.53
2023-06-23T02:58:57.271Z,2.22
2023-06-23T03:01:29.266Z,1.90
2023-06-23T03:03:58.066Z,4.25
2023-06-23T03:06:27.012Z,2.90
2023-06-23T03:08:55.512Z,2.58
2023-06-23T03:11:23.870Z,5.25
2023-06-23T03:13:52.203Z,1.95
2023-06-23T03:16:27.886Z,3.45
2023-06-23T03:19:05.396Z,3.13
2023-06-23T03:21:34.969Z,2.60
2023-06-23T03:24:05.379Z,3.58
2023-06-23T03:26:37.437Z,2.60
2023-06-23T03:29:10.414Z,3.13
2023-06-23T03:31:42.963Z,3.03
2023-06-23T03:34:12.827Z,5.78
2023-06-23T03:36:43.960Z,4.30
2023-06-23T03:39:21.704Z,3.50
2023-06-23T03:41:51.060Z,2.97
2023-06-23T03:44:26.412Z,2.55
2023-06-23T03:46:59.137Z,2.90
2023-06-23T03:49:37.587Z,3.58
2023-06-23T03:52:09.455Z,3.13
2023-06-23T03:54:40.702Z,4.65
2023-06-23T03:57:13.007Z,5.00
2023-06-23T03:59:42.859Z,3.40
2023-06-23T04:02:15.363Z,3.28
2023-06-23T04:04:47.041Z,4.43
2023-06-23T04:07:16.312Z,3.10
2023-06-23T04:09:48.071Z,3.15
2023-06-23T04:12:18.545Z,4.80
2023-06-23T04:14:49.336Z,4.57
2023-06-23T04:17:19.878Z,3.42
2023-06-23T04:19:52.347Z,2.67
2023-06-23T04:22:22.968Z,3.33
2023-06-23T04:24:52.862Z,2.42
2023-06-23T04:27:23.337Z,2.15
2023-06-23T04:29:53.549Z,2.33
2023-06-23T04:32:24.598Z,4.45
2023-06-23T04:34:54.630Z,2.17
2023-06-23T04:37:28.568Z,3.42
2023-06-23T04:40:01.654Z,4.10
2023-06-23T04:42:35.517Z,1.83
2023-06-23T04:45:07.593Z,1.73
2023-06-23T04:47:40.335Z,2.92
2023-06-23T04:50:13.990Z,1.70
2023-06-23T04:52:47.262Z,1.45
2023-06-23T04:55:19.576Z,1.30
2023-06-23T04:57:50.318Z,0.93
2023-06-23T05:00:23.642Z,1.08
2023-06-23T05:02:56.046Z,0.90
2023-06-23T05:05:28.011Z,1.02
2023-06-23T05:07:58.351Z,1.60
2023-06-23T05:10:30.639Z,4.30
2023-06-23T05:13:02.048Z,0.98
2023-06-23T05:15:30.419Z,1.10
2023-06-23T05:18:00.480Z,2.15
2023-06-23T05:20:34.651Z,1.00
2023-06-23T05:23:06.809Z,1.15
2023-06-23T05:25:37.125Z,1.30
2023-06-23T05:28:07.614Z,2.92
2023-06-23T05:30:40.206Z,1.65
2023-06-23T05:33:10.097Z,2.85
2023-06-23T05:35:46.506Z,1.55
2023-06-23T05:38:19.472Z,2.20
2023-06-23T05:40:48.390Z,0.70
2023-06-23T05:43:17.255Z,1.05
2023-06-23T05:45:45.669Z,0.30
2023-06-23T05:48:24.296Z,0.70
2023-06-23T05:50:54.202Z,0.20
2023-06-23T05:53:25.462Z,1.15
2023-06-23T05:56:02.784Z,0.60
2023-06-23T05:58:38.500Z,0.40
2023-06-23T06:01:12.254Z,0.30
2023-06-23T06:03:46.950Z,1.70
2023-06-23T06:06:18.188Z,0.35
2023-06-23T06:08:50.646Z,1.90
2023-06-23T06:11:20.224Z,0.30
2023-06-23T06:13:49.677Z,1.17
2023-06-23T06:16:19.659Z,0.40
2023-06-23T06:18:53.869Z,0.52
2023-06-23T06:21:24.650Z,0.85
2023-06-23T06:23:55.088Z,2.83
2023-06-23T06:26:25.292Z,0.88
2023-06-23T06:28:56.135Z,0.75
2023-06-23T06:31:26.155Z,1.38
2023-06-23T06:33:57.877Z,0.70
2023-06-23T06:36:28.994Z,0.38
2023-06-23T06:38:58.978Z,0.47
2023-06-23T06:41:27.882Z,0.57
2023-06-23T06:43:57.341Z,0.50
2023-06-23T06:46:28.456Z,0.60
2023-06-23T06:48:58.680Z,1.23
2023-06-23T06:51:30.242Z,0.93
2023-06-23T06:53:58.618Z,0.47
2023-06-23T06:56:27.202Z,0.70
2023-06-23T06:58:56.053Z,2.53
2023-06-23T07:01:25.422Z,1.88
2023-06-23T07:03:56.080Z,2.15
2023-06-23T07:06:24.580Z,1.48
2023-06-23T07:08:55.047Z,1.27
2023-06-23T07:11:23.408Z,1.85
2023-06-23T07:13:54.835Z,0.90
2023-06-23T07:16:23.283Z,0.77
2023-06-23T07:18:51.908Z,0.82
2023-06-23T07:21:20.574Z,0.63
2023-06-23T07:23:48.840Z,2.50
2023-06-23T07:26:18.915Z,1.85
2023-06-23T07:28:47.295Z,0.98
2023-06-23T07:31:15.832Z,1.13
2023-06-23T07:33:44.335Z,1.25
2023-06-23T07:36:12.676Z,0.95
2023-06-23T07:38:40.871Z,1.73
2023-06-23T07:41:09.378Z,1.55
2023-06-23T07:43:42.178Z,1.77
2023-06-23T07:46:11.550Z,1.17
2023-06-23T07:48:39.929Z,1.58
2023-06-23T07:51:08.466Z,1.85
2023-06-23T07:53:38.006Z,1.40
2023-06-23T07:56:06.873Z,1.02
2023-06-23T07:58:35.181Z,1.27
2023-06-23T08:01:05.089Z,2.50
2023-06-23T08:03:33.608Z,1.80
2023-06-23T08:06:02.217Z,0.82
2023-06-23T08:08:30.728Z,0.80
2023-06-23T08:10:59.089Z,1.33
2023-06-23T08:13:27.434Z,1.00
2023-06-23T08:15:55.804Z,4.88
2023-06-23T08:18:25.464Z,2.35
2023-06-23T08:20:55.948Z,1.77
2023-06-23T08:23:24.356Z,2.92
2023-06-23T08:25:52.836Z,1.77
2023-06-23T08:28:21.105Z,2.53
2023-06-23T08:30:49.451Z,4.45
2023-06-23T08:33:18.005Z,2.50
2023-06-23T08:35:47.834Z,1.85
2023-06-23T08:38:17.459Z,1.80
2023-06-23T08:40:47.184Z,3.00
2023-06-23T08:43:17.422Z,3.45
2023-06-23T08:45:53.017Z,2.63
2023-06-23T08:48:23.414Z,3.80
2023-06-23T08:50:58.811Z,4.50
2023-06-23T08:53:29.797Z,2.95
2023-06-23T08:55:58.590Z,3.83
2023-06-23T08:58:27.695Z,4.03
2023-06-23T09:00:56.645Z,4.13
2023-06-23T09:03:26.321Z,3.58
2023-06-23T09:05:56.565Z,8.80
2023-06-23T09:08:29.476Z,2.90
2023-06-23T09:10:57.893Z,3.42
2023-06-23T09:13:31.604Z,3.47
2023-06-23T09:16:03.665Z,3.92
2023-06-23T09:18:34.711Z,4.18
2023-06-23T09:21:05.005Z,4.45
2023-06-23T09:23:36.991Z,3.30
2023-06-23T09:26:07.280Z,3.42
2023-06-23T09:28:37.338Z,3.92
2023-06-23T09:31:14.347Z,3.45
2023-06-23T09:33:50.420Z,4.28
2023-06-23T09:36:20.446Z,3.30
2023-06-23T09:38:50.067Z,4.18
2023-06-23T09:41:19.871Z,4.40
2023-06-23T09:43:52.045Z,4.53
2023-06-23T09:46:21.626Z,5.65
2023-06-23T09:48:51.219Z,4.82
2023-06-23T09:51:21.516Z,3.40
2023-06-23T09:53:51.156Z,4.72
2023-06-23T09:56:21.694Z,2.97
2023-06-23T09:58:51.978Z,3.35
2023-06-23T10:01:22.685Z,2.95
2023-06-23T10:03:53.765Z,2.88
2023-06-23T10:06:26.151Z,5.32
2023-06-23T10:08:56.441Z,3.55
2023-06-23T10:11:32.822Z,4.35
2023-06-23T10:14:03.091Z,5.07
2023-06-23T10:16:31.928Z,4.90
2023-06-23T10:19:00.754Z,4.20
2023-06-23T10:21:32.661Z,5.40
2023-06-23T10:24:04.005Z,4.22
2023-06-23T10:26:35.230Z,3.72
2023-06-23T10:29:08.186Z,3.55
2023-06-23T10:31:39.017Z,4.97
2023-06-23T10:34:10.326Z,3.72
2023-06-23T10:36:43.357Z,3.85
2023-06-23T10:39:12.839Z,4.95
2023-06-23T10:41:42.366Z,4.10
2023-06-23T10:44:15.298Z,3.53
2023-06-23T10:46:43.626Z,4.68
2023-06-23T10:49:12.853Z,3.25
2023-06-23T10:51:44.125Z,3.53
2023-06-23T10:54:12.326Z,8.10
2023-06-23T10:56:43.257Z,3.15
2023-06-23T10:59:22.122Z,3.65
2023-06-23T11:02:18.607Z,4.13
2023-06-23T11:04:56.549Z,3.30
2023-06-23T11:07:26.936Z,4.75
2023-06-23T11:10:07.440Z,4.32
2023-06-23T11:12:43.914Z,3.13
2023-06-23T11:15:16.961Z,4.20
2023-06-23T11:17:46.984Z,3.20
2023-06-23T11:20:29.660Z,5.18
2023-06-23T11:23:01.933Z,3.78
2023-06-23T11:25:31.645Z,4.18
2023-06-23T11:28:25.540Z,3.22
2023-06-23T11:30:56.132Z,3.17
2023-06-23T11:33:28.555Z,4.35
2023-06-23T11:35:57.117Z,3.55
2023-06-23T11:38:28.740Z,3.40
2023-06-23T11:40:58.535Z,3.67
2023-06-23T11:43:27.075Z,3.47
2023-06-23T11:45:58.092Z,3.28
2023-06-23T11:48:29.719Z,4.18
2023-06-23T11:50:58.586Z,3.50
2023-06-23T11:53:28.862Z,4.05
2023-06-23T11:55:57.429Z,6.03
2023-06-23T11:58:26.204Z,4.60
2023-06-23T12:00:54.595Z,4.90
2023-06-23T12:03:23.374Z,4.30
2023-06-23T12:05:52.051Z,7.05
2023-06-23T12:08:20.693Z,6.03
2023-06-23T12:10:50.425Z,4.80
2023-06-23T12:13:21.265Z,5.15
2023-06-23T12:15:52.610Z,7.03
2023-06-23T12:18:22.763Z,4.85
2023-06-23T12:20:51.120Z,5.70
2023-06-23T12:23:19.363Z,5.80
2023-06-23T12:25:52.171Z,4.50
2023-06-23T12:28:21.825Z,5.53
2023-06-23T12:30:52.144Z,5.68
2023-06-23T12:33:23.407Z,6.15
2023-06-23T12:35:59.723Z,5.53
2023-06-23T12:38:28.612Z,5.72
2023-06-23T12:41:15.445Z,7.07
2023-06-23T12:43:45.796Z,7.97
2023-06-23T12:46:16.106Z,5.72
2023-06-23T12:48:45.278Z,8.23
2023-06-23T12:51:13.823Z,26.33
2023-06-23T12:53:42.762Z,9.43
2023-06-23T12:56:13.156Z,8.70
2023-06-23T12:58:41.429Z,8.40
2023-06-23T13:01:09.858Z,8.07
2023-06-23T13:03:38.462Z,7.10
2023-06-23T13:06:07.062Z,6.47
2023-06-23T13:08:35.617Z,9.80
2023-06-23T13:11:04.552Z,9.80
2023-06-23T13:13:34.373Z,6.30
2023-06-23T13:16:04.648Z,8.85
2023-06-23T13:18:36.458Z,8.55
2023-06-23T13:21:04.952Z,5.85
2023-06-23T13:23:33.532Z,7.28
2023-06-23T13:26:02.214Z,7.82
2023-06-23T13:28:31.636Z,7.95
2023-06-23T13:31:02.283Z,7.13
2023-06-23T13:33:32.632Z,6.00
2023-06-23T13:36:01.210Z,8.88
2023-06-23T13:38:30.550Z,5.43
2023-06-23T13:40:58.842Z,5.97
2023-06-23T13:43:27.374Z,6.22
2023-06-23T13:45:57.809Z,5.93
2023-06-23T13:48:28.384Z,5.68
2023-06-23T13:51:00.175Z,6.63
2023-06-23T13:53:28.712Z,7.20
2023-06-23T13:55:57.063Z,6.25
2023-06-23T13:58:26.000Z,8.50
2023-06-23T14:00:55.044Z,8.00
2023-06-23T14:03:23.812Z,7.15
2023-06-23T14:05:57.336Z,5.75
2023-06-23T14:08:26.131Z,8.77
2023-06-23T14:10:55.001Z,12.60
2023-06-23T14:13:23.275Z,5.53
2023-06-23T14:15:51.778Z,7.18
2023-06-23T14:18:20.614Z,8.98
2023-06-23T14:20:49.031Z,6.55
2023-06-23T14:23:19.296Z,7.13
2023-06-23T14:25:47.863Z,7.70
2023-06-23T14:28:16.281Z,7.68
2023-06-23T14:30:45.932Z,7.07
2023-06-23T14:33:14.289Z,6.88
2023-06-23T14:35:42.879Z,7.68
2023-06-23T14:38:11.772Z,8.40
2023-06-23T14:40:41.720Z,9.85
2023-06-23T14:43:10.241Z,11.63
2023-06-23T14:45:39.897Z,7.63
2023-06-23T14:48:09.103Z,11.18
2023-06-23T14:50:38.541Z,8.55
2023-06-23T14:53:06.884Z,7.78
2023-06-23T14:55:36.931Z,6.63
2023-06-23T14:58:07.039Z,8.82
2023-06-23T15:00:35.884Z,6.72
2023-06-23T15:03:05.058Z,9.48
2023-06-23T15:05:35.560Z,10.27
2023-06-23T15:08:06.033Z,8.63
2023-06-23T15:10:36.275Z,10.65
2023-06-23T15:13:06.265Z,8.45
2023-06-23T15:15:35.179Z,7.30
2023-06-23T15:18:03.666Z,9.18
2023-06-23T15:20:33.118Z,11.75
2023-06-23T15:23:03.566Z,9.23
2023-06-23T15:25:32.393Z,9.20
2023-06-23T15:28:01.209Z,7.97
2023-06-23T15:30:31.893Z,8.25
2023-06-23T15:33:00.409Z,7.18
2023-06-23T15:35:28.829Z,8.13
2023-06-23T15:37:57.650Z,8.75
2023-06-23T15:40:25.910Z,7.95
2023-06-23T15:42:54.280Z,12.43
2023-06-23T15:45:22.824Z,10.40
2023-06-23T15:47:52.481Z,8.98
2023-06-23T15:50:20.895Z,7.55
2023-06-23T15:52:49.214Z,8.07
2023-06-23T15:55:17.598Z,8.60
2023-06-23T15:57:45.861Z,8.85
2023-06-23T16:00:16.578Z,8.27
2023-06-23T16:02:44.880Z,8.25
2023-06-23T16:05:14.765Z,9.77
2023-06-23T16:07:43.245Z,10.10
2023-06-23T16:10:12.821Z,8.00
2023-06-23T16:12:42.143Z,10.43
2023-06-23T16:15:11.871Z,6.32
2023-06-23T16:17:40.459Z,7.85
2023-06-23T16:20:10.152Z,10.02
2023-06-23T16:22:40.047Z,9.55
2023-06-23T16:25:09.090Z,8.43
2023-06-23T16:27:37.922Z,7.18
2023-06-23T16:30:07.654Z,7.15
2023-06-23T16:32:36.048Z,10.95
2023-06-23T16:35:05.309Z,9.75
2023-06-23T16:37:34.271Z,8.30
2023-06-23T16:40:04.718Z,7.50
2023-06-23T16:42:33.033Z,7.30
2023-06-23T16:45:01.296Z,7.78
2023-06-23T16:47:31.156Z,10.07
2023-06-23T16:49:59.465Z,10.02
2023-06-23T16:52:27.896Z,10.57
2023-06-23T16:54:56.180Z,9.93
2023-06-23T16:57:26.057Z,8.38
2023-06-23T16:59:54.726Z,7.28
2023-06-23T17:02:23.391Z,9.07
2023-06-23T17:04:52.084Z,7.47
2023-06-23T17:07:20.401Z,11.15
2023-06-23T17:09:48.766Z,8.07
2023-06-23T17:12:19.622Z,6.10
2023-06-23T17:14:51.694Z,7.30
2023-06-23T17:17:20.954Z,7.88
2023-06-23T17:19:49.298Z,9.35
2023-06-23T17:22:17.707Z,11.25
2023-06-23T17:24:47.461Z,8.07
2023-06-23T17:27:15.934Z,6.05
2023-06-23T17:29:44.385Z,11.40
2023-06-23T17:32:14.197Z,7.18
2023-06-23T17:34:42.628Z,7.05
2023-06-23T17:37:10.842Z,9.60
2023-06-23T17:39:39.445Z,5.70
2023-06-23T17:42:10.986Z,7.28
2023-06-23T17:44:39.396Z,10.20
2023-06-23T17:47:07.978Z,8.40
2023-06-23T17:49:38.297Z,6.00
2023-06-23T17:52:08.300Z,6.40
2023-06-23T17:54:36.630Z,8.25
2023-06-23T17:57:06.324Z,7.88
2023-06-23T17:59:35.003Z,5.68
2023-06-23T18:02:03.759Z,6.40
2023-06-23T18:04:32.105Z,7.07
2023-06-23T18:07:03.114Z,8.45
2023-06-23T18:09:31.575Z,8.07
2023-06-23T18:11:59.766Z,8.98
2023-06-23T18:14:28.852Z,6.50
2023-06-23T18:16:57.638Z,7.68
2023-06-23T18:19:26.108Z,9.35
2023-06-23T18:21:55.247Z,6.53
2023-06-23T18:24:25.166Z,7.35
2023-06-23T18:26:53.388Z,6.53
2023-06-23T18:29:21.840Z,8.43
2023-06-23T18:31:54.826Z,8.25
2023-06-23T18:34:25.016Z,8.23
2023-06-23T18:36:53.387Z,7.68
2023-06-23T18:39:21.816Z,6.28
2023-06-23T18:41:51.730Z,6.68
2023-06-23T18:44:22.012Z,8.35
2023-06-23T18:46:50.669Z,5.97
2023-06-23T18:49:19.171Z,11.05
2023-06-23T18:51:47.598Z,7.18
2023-06-23T18:54:15.840Z,7.82
2023-06-23T18:56:44.926Z,6.97
2023-06-23T18:59:14.636Z,8.38
2023-06-23T19:01:42.905Z,8.93
2023-06-23T19:04:11.331Z,7.63
2023-06-23T19:06:40.355Z,9.00
2023-06-23T19:09:09.294Z,6.60
2023-06-23T19:11:38.450Z,9.50
2023-06-23T19:14:06.870Z,10.73
2023-06-23T19:16:36.608Z,9.98
2023-06-23T19:19:05.201Z,9.55
2023-06-23T19:21:33.817Z,8.43
2023-06-23T19:24:02.545Z,6.78
2023-06-23T19:26:30.818Z,13.13
2023-06-23T19:28:59.632Z,6.25
2023-06-23T19:31:28.184Z,6.93
2023-06-23T19:33:57.919Z,6.97
2023-06-23T19:36:26.390Z,6.70
2023-06-23T19:38:56.165Z,9.05
2023-06-23T19:41:24.554Z,7.57
2023-06-23T19:43:52.770Z,10.32
2023-06-23T19:46:21.151Z,7.70
2023-06-23T19:48:51.695Z,8.82
2023-06-23T19:51:21.431Z,10.45
2023-06-23T19:53:50.373Z,10.25
2023-06-23T19:56:19.089Z,10.57
2023-06-23T19:58:47.445Z,8.48
2023-06-23T20:01:18.751Z,7.50
2023-06-23T20:03:48.278Z,9.13
2023-06-23T20:06:19.120Z,8.30
2023-06-23T20:08:49.519Z,7.18
2023-06-23T20:11:19.019Z,7.38
2023-06-23T20:13:47.393Z,9.50
2023-06-23T20:16:20.363Z,7.50
2023-06-23T20:18:49.551Z,10.25
2023-06-23T20:21:18.964Z,8.00
2023-06-23T20:23:48.682Z,9.02
2023-06-23T20:26:17.325Z,9.63
2023-06-23T20:28:46.019Z,9.35
2023-06-23T20:31:14.371Z,9.73
2023-06-23T20:33:42.646Z,9.48
2023-06-23T20:36:10.895Z,11.05
2023-06-23T20:38:39.853Z,8.35
2023-06-23T20:41:10.144Z,10.20
2023-06-23T20:43:38.522Z,12.23
2023-06-23T20:46:07.106Z,9.98
2023-06-23T20:48:40.598Z,8.52
2023-06-23T20:51:09.194Z,10.10
2023-06-23T20:53:37.800Z,11.45
2023-06-23T20:56:06.471Z,9.07
2023-06-23T20:58:36.517Z,9.80
2023-06-23T21:01:05.275Z,12.20
2023-06-23T21:03:36.767Z,10.98
2023-06-23T21:06:05.600Z,8.48
2023-06-23T21:08:36.312Z,11.00
2023-06-23T21:11:04.535Z,10.73
2023-06-23T21:13:32.999Z,9.20
2023-06-23T21:16:03.536Z,11.35
2023-06-23T21:18:32.456Z,10.30
2023-06-23T21:21:01.548Z,14.23
2023-06-23T21:23:30.094Z,11.10
2023-06-23T21:25:58.629Z,16.40
2023-06-23T21:28:26.963Z,10.57
2023-06-23T21:30:56.126Z,10.48
2023-06-23T21:33:25.905Z,10.75
2023-06-23T21:35:54.572Z,10.50
2023-06-23T21:38:23.249Z,15.18
2023-06-23T21:40:51.700Z,11.02
2023-06-23T21:43:20.029Z,11.05
2023-06-23T21:45:48.562Z,13.75
2023-06-23T21:48:21.025Z,13.88
2023-06-23T21:50:50.717Z,12.35
2023-06-23T21:53:19.256Z,10.70
2023-06-23T21:55:47.770Z,9.13
2023-06-23T21:58:16.287Z,10.38
2023-06-23T22:00:44.950Z,9.65
2023-06-23T22:03:13.451Z,11.30
2023-06-23T22:05:41.778Z,11.80
2023-06-23T22:08:11.988Z,10.00
2023-06-23T22:10:40.721Z,18.33
2023-06-23T22:13:09.027Z,13.30
2023-06-23T22:15:37.520Z,12.10
2023-06-23T22:18:05.898Z,13.27
2023-06-23T22:20:34.688Z,12.20
2023-06-23T22:23:03.764Z,9.18
2023-06-23T22:25:34.176Z,12.70
2023-06-23T22:28:02.607Z,11.73
2023-06-23T22:30:31.520Z,10.85
2023-06-23T22:33:00.268Z,11.70
2023-06-23T22:35:28.650Z,12.13
2023-06-23T22:37:57.053Z,9.18
2023-06-23T22:40:26.380Z,9.73
2023-06-23T22:42:56.539Z,10.35
2023-06-23T22:45:25.437Z,11.40
2023-06-23T22:47:58.991Z,9.18
2023-06-23T22:50:32.692Z,10.10
2023-06-23T22:53:05.364Z,8.90
2023-06-23T22:55:35.424Z,9.02
2023-06-23T22:58:06.660Z,14.10
2023-06-23T23:00:36.388Z,8.10
2023-06-23T23:03:07.789Z,8.43
2023-06-23T23:05:36.972Z,6.65
2023-06-23T23:08:06.468Z,7.05
2023-06-23T23:10:35.983Z,10.40
2023-06-23T23:13:26.897Z,9.82
2023-06-23T23:15:56.037Z,6.63
2023-06-23T23:18:25.042Z,9.43
2023-06-23T23:21:08.025Z,8.18
2023-06-23T23:24:05.367Z,8.48
2023-06-23T23:26:36.936Z,11.63
2023-06-23T23:29:07.336Z,11.32
2023-06-23T23:31:36.368Z,6.78
2023-06-23T23:34:05.247Z,9.75
2023-06-23T23:36:38.213Z,10.25
2023-06-23T23:39:11.676Z,6.40
2023-06-23T23:41:42.217Z,10.85
2023-06-23T23:44:14.225Z,9.90
2023-06-23T23:46:44.728Z,6.80
2023-06-23T23:49:14.699Z,9.02
2023-06-23T23:51:43.614Z,6.43
2023-06-23T23:54:16.710Z,7.70
2023-06-23T23:56:45.760Z,9.98
2023-06-23T23:59:26.790Z,6.07
